Time;durP1;ratioP1;P1;durP2;ratioP2;P2;SDS_P1;SDS_P2;PMS_P1;PMS_P2;Temp;Humidity;BMP_temperature;BMP_pressure;BME280_temperature;BME280_humidity;BME280_pressure;Samples;Min_cycle;Max_cycle;Signal;HPM_P1;HPM_P2
2023/10/26 00:00:35;;;;;;;3.60;2.28;;;10.50;99.90;;;;;;4995336;28;20077;-77
2023/10/26 00:03:01;;;;;;;4.25;1.45;;;10.40;99.90;;;;;;4992614;28;20529;-77
2023/10/26 00:05:27;;;;;;;3.33;1.58;;;10.30;99.90;;;;;;4995193;28;20034;-77
2023/10/26 00:07:52;;;;;;;3.33;1.83;;;10.30;99.90;;;;;;4994096;28;20081;-78
2023/10/26 00:10:18;;;;;;;6.03;1.80;;;10.30;99.90;;;;;;4993933;28;20113;-77
2023/10/26 00:12:44;;;;;;;3.08;1.40;;;10.30;99.90;;;;;;4995292;28;20093;-76
2023/10/26 00:15:10;;;;;;;1.40;1.30;;;10.30;99.90;;;;;;4977490;28;20026;-76
2023/10/26 00:17:37;;;;;;;4.40;1.70;;;10.30;99.90;;;;;;4995137;28;20037;-76
2023/10/26 00:20:07;;;;;;;3.30;1.67;;;10.30;99.90;;;;;;4977536;28;20451;-77
2023/10/26 00:22:32;;;;;;;6.90;2.15;;;10.30;99.90;;;;;;4977399;28;20027;-76
2023/10/26 00:24:58;;;;;;;3.25;1.70;;;10.30;99.90;;;;;;4994702;28;20524;-77
2023/10/26 00:27:24;;;;;;;2.25;1.48;;;10.30;99.90;;;;;;4993812;28;20493;-77
2023/10/26 00:29:49;;;;;;;5.47;1.75;;;10.40;99.90;;;;;;4994778;28;20064;-77
2023/10/26 00:32:15;;;;;;;4.57;1.40;;;10.40;99.90;;;;;;4977090;28;20081;-77
2023/10/26 00:34:41;;;;;;;4.22;1.50;;;10.40;99.90;;;;;;4994412;28;20037;-77
2023/10/26 00:37:06;;;;;;;2.22;1.60;;;10.40;99.90;;;;;;4994790;28;20026;-76
2023/10/26 00:39:33;;;;;;;2.67;1.40;;;10.50;99.90;;;;;;4977040;28;20113;-77
2023/10/26 00:41:59;;;;;;;6.13;1.67;;;10.50;99.90;;;;;;4994647;28;20022;-77
2023/10/26 00:44:25;;;;;;;7.43;1.75;;;10.40;99.90;;;;;;4994276;28;20042;-77
2023/10/26 00:46:52;;;;;;;2.42;1.80;;;10.40;99.90;;;;;;4977197;28;20034;-77
2023/10/26 00:49:18;;;;;;;8.65;1.92;;;10.40;99.90;;;;;;4976999;28;20105;-77
2023/10/26 00:51:59;;;;;;;12.63;1.92;;;10.40;99.90;;;;;;4994475;28;20609;-77
2023/10/26 00:54:26;;;;;;;3.83;1.50;;;10.40;99.90;;;;;;4994305;28;20505;-77
2023/10/26 00:56:53;;;;;;;6.28;1.45;;;10.40;99.90;;;;;;4994246;28;20459;-76
2023/10/26 00:59:19;;;;;;;1.90;1.50;;;10.40;99.90;;;;;;4994216;28;20038;-77
2023/10/26 01:01:47;;;;;;;5.72;1.52;;;10.30;99.90;;;;;;4994312;28;20035;-77
2023/10/26 01:04:16;;;;;;;2.90;1.67;;;10.30;99.90;;;;;;4994074;28;20061;-77
2023/10/26 01:06:42;;;;;;;1.45;1.35;;;10.10;99.90;;;;;;4994191;28;20077;-76
2023/10/26 01:09:08;;;;;;;1.17;1.08;;;10.20;99.90;;;;;;4994007;28;20050;-77
2023/10/26 01:11:37;;;;;;;1.33;1.13;;;10.20;99.90;;;;;;4976654;28;20097;-76
2023/10/26 01:14:03;;;;;;;0.80;0.80;;;10.10;99.90;;;;;;4993331;28;20025;-77
2023/10/26 01:16:29;;;;;;;1.20;1.17;;;10.10;99.90;;;;;;4976492;28;20096;-76
2023/10/26 01:18:58;;;;;;;0.85;0.85;;;10.00;99.90;;;;;;4993712;28;20030;-76
2023/10/26 01:21:31;;;;;;;1.15;1.15;;;10.00;99.90;;;;;;4993716;28;20060;-76
2023/10/26 01:23:57;;;;;;;1.23;1.13;;;10.00;99.90;;;;;;4993568;28;20038;-76
2023/10/26 01:26:23;;;;;;;2.20;0.98;;;10.00;99.90;;;;;;4976317;28;20038;-76
2023/10/26 01:28:49;;;;;;;1.20;1.10;;;9.80;99.90;;;;;;4993593;28;20449;-77
2023/10/26 01:31:16;;;;;;;1.00;0.90;;;9.80;99.90;;;;;;4993815;28;20368;-77
2023/10/26 01:33:42;;;;;;;2.63;1.60;;;9.80;99.90;;;;;;4993362;28;20106;-76
2023/10/26 01:36:08;;;;;;;1.40;1.27;;;9.80;99.90;;;;;;4993541;28;20464;-77
2023/10/26 01:38:34;;;;;;;4.38;2.10;;;9.80;99.90;;;;;;5000844;23;20062;-77
2023/10/26 01:41:00;;;;;;;0.90;0.90;;;9.80;99.90;;;;;;4975622;28;20045;-78
2023/10/26 01:43:26;;;;;;;1.60;1.10;;;9.80;99.90;;;;;;4975374;28;20113;-78
2023/10/26 01:45:51;;;;;;;2.30;1.15;;;9.80;99.90;;;;;;4976469;28;20471;-79
2023/10/26 01:48:17;;;;;;;3.88;1.23;;;9.80;99.90;;;;;;4977828;28;20019;-77
2023/10/26 01:50:42;;;;;;;4.93;1.48;;;9.80;99.90;;;;;;4977845;28;20023;-78
2023/10/26 01:53:08;;;;;;;1.50;1.40;;;9.80;99.90;;;;;;4959441;28;20050;-78
2023/10/26 01:55:34;;;;;;;7.72;1.42;;;9.80;99.90;;;;;;4959707;28;20438;-77
2023/10/26 01:57:59;;;;;;;11.38;1.50;;;9.90;99.90;;;;;;4976721;28;20561;-79
2023/10/26 02:00:25;;;;;;;2.00;1.60;;;9.80;99.90;;;;;;4974909;28;20081;-78
2023/10/26 02:02:51;;;;;;;4.90;1.48;;;9.90;99.90;;;;;;4975185;28;20041;-77
2023/10/26 02:05:17;;;;;;;4.65;1.70;;;9.90;99.90;;;;;;4977873;28;20050;-78
2023/10/26 02:07:43;;;;;;;4.63;2.10;;;9.90;99.90;;;;;;4978080;28;20049;-77
2023/10/26 02:10:13;;;;;;;2.65;1.83;;;9.90;99.90;;;;;;4978233;28;20070;-77
2023/10/26 02:12:39;;;;;;;2.33;1.73;;;9.90;99.90;;;;;;4979329;28;20522;-78
2023/10/26 02:15:05;;;;;;;12.57;1.75;;;9.80;99.90;;;;;;4962735;28;20030;-79
2023/10/26 02:17:31;;;;;;;2.58;1.83;;;9.80;99.90;;;;;;4980684;28;20034;-80
2023/10/26 02:19:56;;;;;;;9.13;1.92;;;9.80;99.90;;;;;;4981042;28;20421;-78
2023/10/26 02:22:22;;;;;;;1.90;1.48;;;9.70;99.90;;;;;;4964018;28;20023;-81
2023/10/26 02:24:48;;;;;;;3.10;1.65;;;9.60;99.90;;;;;;4980157;28;20038;-79
2023/10/26 02:27:13;;;;;;;1.33;1.23;;;9.70;99.90;;;;;;4979322;28;20046;-79
2023/10/26 02:29:39;;;;;;;5.57;1.73;;;9.60;99.90;;;;;;4981209;28;20031;-78
2023/10/26 02:32:06;;;;;;;1.40;1.30;;;9.70;99.90;;;;;;4980500;28;20545;-79
2023/10/26 02:34:32;;;;;;;1.65;1.30;;;9.70;99.90;;;;;;4979991;28;20079;-79
2023/10/26 02:36:59;;;;;;;1.50;1.35;;;9.70;99.90;;;;;;4979695;28;20054;-79
2023/10/26 02:39:25;;;;;;;2.88;1.60;;;9.60;99.90;;;;;;4978211;28;20089;-79
2023/10/26 02:41:51;;;;;;;2.50;1.45;;;9.60;99.90;;;;;;4979196;28;20092;-77
2023/10/26 02:44:17;;;;;;;2.22;1.58;;;9.60;99.90;;;;;;4979420;28;20023;-78
2023/10/26 02:46:42;;;;;;;1.55;1.45;;;9.70;99.90;;;;;;4979398;28;20023;-78
2023/10/26 02:49:08;;;;;;;6.80;1.30;;;9.70;99.90;;;;;;4978674;28;20058;-78
2023/10/26 02:51:34;;;;;;;1.77;1.30;;;9.70;99.90;;;;;;4978153;28;20475;-78
2023/10/26 02:53:59;;;;;;;1.90;1.58;;;9.70;99.90;;;;;;4977781;28;20026;-77
2023/10/26 02:56:25;;;;;;;5.53;1.50;;;9.70;99.90;;;;;;4977116;28;20030;-78
2023/10/26 02:58:51;;;;;;;1.63;1.42;;;9.70;99.90;;;;;;4961266;28;20041;-78
2023/10/26 03:01:17;;;;;;;5.78;1.50;;;9.60;99.90;;;;;;4975428;28;20026;-79
2023/10/26 03:03:42;;;;;;;4.97;1.08;;;9.60;99.90;;;;;;4976443;28;20018;-79
2023/10/26 03:06:08;;;;;;;4.57;1.38;;;9.60;99.90;;;;;;4976694;28;20498;-78
2023/10/26 03:08:34;;;;;;;5.97;1.67;;;9.60;99.90;;;;;;4976579;28;20030;-79
2023/10/26 03:11:00;;;;;;;1.27;1.20;;;9.60;99.90;;;;;;4959214;28;20027;-78
2023/10/26 03:13:25;;;;;;;4.07;1.48;;;9.50;99.90;;;;;;4976758;28;20031;-78
2023/10/26 03:15:51;;;;;;;1.65;1.55;;;9.60;99.90;;;;;;4977963;28;20038;-78
2023/10/26 03:18:16;;;;;;;1.60;1.25;;;9.50;99.90;;;;;;4975970;28;20027;-78
2023/10/26 03:20:42;;;;;;;1.45;1.35;;;9.50;99.90;;;;;;4962867;28;20479;-77
2023/10/26 03:23:08;;;;;;;1.85;1.58;;;9.50;99.90;;;;;;4976158;28;20027;-77
2023/10/26 03:25:33;;;;;;;1.73;1.52;;;9.50;99.90;;;;;;4981388;28;20058;-78
2023/10/26 03:27:59;;;;;;;1.40;1.30;;;9.50;99.90;;;;;;4979715;28;20027;-81
2023/10/26 03:30:25;;;;;;;5.03;1.58;;;9.50;99.90;;;;;;4979802;28;20193;-80
2023/10/26 03:32:50;;;;;;;2.53;1.60;;;9.50;99.90;;;;;;4962177;28;20038;-79
2023/10/26 03:35:16;;;;;;;3.45;1.92;;;9.50;99.90;;;;;;4977018;28;20438;-77
2023/10/26 03:37:42;;;;;;;5.35;1.90;;;9.50;99.90;;;;;;4981913;28;20094;-78
2023/10/26 03:40:08;;;;;;;3.38;1.50;;;9.60;99.90;;;;;;4983222;28;20031;-79
2023/10/26 03:42:33;;;;;;;2.58;1.25;;;9.60;99.90;;;;;;4981944;28;20090;-78
2023/10/26 03:44:59;;;;;;;6.70;1.83;;;9.50;99.90;;;;;;4966648;28;20058;-79
2023/10/26 03:47:25;;;;;;;1.50;1.40;;;9.50;99.90;;;;;;4966186;28;20027;-80
2023/10/26 03:49:52;;;;;;;5.13;1.55;;;9.60;99.90;;;;;;4980885;28;20042;-77
2023/10/26 03:52:21;;;;;;;2.70;1.55;;;9.50;99.90;;;;;;4981867;28;20053;-79
2023/10/26 03:54:47;;;;;;;1.30;1.20;;;9.50;99.90;;;;;;4981308;28;20070;-77
2023/10/26 03:57:13;;;;;;;7.03;1.50;;;9.60;99.90;;;;;;4980796;28;20034;-77
2023/10/26 03:59:39;;;;;;;5.75;1.55;;;9.50;99.90;;;;;;4982307;28;20023;-77
2023/10/26 04:02:05;;;;;;;7.63;1.58;;;9.50;99.90;;;;;;4982339;28;20035;-79
2023/10/26 04:04:30;;;;;;;1.80;1.70;;;9.50;99.90;;;;;;4980880;28;20117;-76
2023/10/26 04:06:56;;;;;;;4.35;1.30;;;9.40;99.90;;;;;;4980341;28;20030;-79
2023/10/26 04:09:23;;;;;;;1.27;1.20;;;9.40;99.90;;;;;;4979989;28;20445;-79
2023/10/26 04:11:48;;;;;;;2.88;2.03;;;9.40;99.90;;;;;;4980412;28;20026;-78
2023/10/26 04:14:14;;;;;;;1.13;1.00;;;9.40;99.90;;;;;;4963310;28;20023;-79
2023/10/26 04:16:40;;;;;;;1.92;1.83;;;9.40;99.90;;;;;;4981117;28;20023;-79
2023/10/26 04:19:06;;;;;;;1.40;1.30;;;9.30;99.90;;;;;;4981226;28;20027;-77
2023/10/26 04:21:31;;;;;;;2.88;1.40;;;9.30;99.90;;;;;;4963343;28;20061;-79
2023/10/26 04:23:58;;;;;;;1.65;1.15;;;9.30;99.90;;;;;;4980784;28;20026;-80
2023/10/26 04:26:23;;;;;;;1.48;1.38;;;9.30;99.90;;;;;;4979840;28;20482;-81
2023/10/26 04:28:49;;;;;;;1.40;1.23;;;9.10;99.90;;;;;;4980309;28;20027;-80
2023/10/26 04:31:15;;;;;;;1.25;1.17;;;9.10;99.90;;;;;;4978718;28;20023;-78
2023/10/26 04:33:40;;;;;;;1.00;1.00;;;9.10;99.90;;;;;;4962586;28;20034;-77
2023/10/26 04:36:06;;;;;;;3.03;1.20;;;9.00;99.90;;;;;;4979003;28;20043;-80
2023/10/26 04:38:32;;;;;;;5.47;1.30;;;9.10;99.90;;;;;;4978249;28;20521;-81
2023/10/26 04:40:59;;;;;;;4.43;1.50;;;9.10;99.90;;;;;;4977344;28;20034;-78
2023/10/26 04:43:25;;;;;;;2.33;1.27;;;9.10;99.90;;;;;;4977982;28;20026;-79
2023/10/26 04:45:50;;;;;;;0.88;0.88;;;9.10;99.90;;;;;;4961226;28;20019;-78
2023/10/26 04:48:16;;;;;;;9.07;1.05;;;9.00;99.90;;;;;;4976418;28;20026;-79
2023/10/26 04:50:42;;;;;;;1.75;1.65;;;9.00;99.90;;;;;;4977105;28;20045;-79
2023/10/26 04:53:07;;;;;;;2.33;1.40;;;8.90;99.90;;;;;;4976133;28;20038;-80
2023/10/26 04:55:36;;;;;;;2.58;1.85;;;9.00;99.90;;;;;;4960484;28;20031;-77
2023/10/26 04:58:03;;;;;;;1.02;1.00;;;8.90;99.90;;;;;;4976886;28;20085;-78
2023/10/26 05:00:28;;;;;;;1.30;1.20;;;9.00;99.90;;;;;;4975110;28;20027;-80
2023/10/26 05:02:54;;;;;;;1.10;1.10;;;9.00;99.90;;;;;;4959119;28;20034;-80
2023/10/26 05:05:19;;;;;;;0.85;0.85;;;9.00;99.90;;;;;;4976718;28;20030;-78
2023/10/26 05:07:45;;;;;;;5.38;2.85;;;8.90;99.90;;;;;;4975687;28;20483;-78
2023/10/26 05:10:11;;;;;;;3.70;2.85;;;8.90;99.90;;;;;;4959170;28;20505;-79
2023/10/26 05:12:37;;;;;;;4.28;2.30;;;9.00;99.90;;;;;;4975155;28;20042;-78
2023/10/26 05:15:04;;;;;;;2.10;1.77;;;8.90;99.90;;;;;;4975036;28;20027;-79
2023/10/26 05:17:30;;;;;;;1.52;1.42;;;8.90;99.90;;;;;;4974841;28;20023;-80
2023/10/26 05:19:55;;;;;;;0.85;0.85;;;8.90;99.90;;;;;;4974693;28;20022;-80
2023/10/26 05:22:21;;;;;;;0.90;0.90;;;8.90;99.90;;;;;;4961100;28;20077;-78
2023/10/26 05:24:46;;;;;;;1.05;1.00;;;9.90;99.90;;;;;;4980078;28;20030;-79
2023/10/26 05:27:12;;;;;;;2.28;1.42;;;9.80;99.90;;;;;;4981119;28;20494;-78
2023/10/26 05:29:38;;;;;;;4.35;1.30;;;9.50;99.90;;;;;;4960373;28;20029;-77
2023/10/26 05:32:04;;;;;;;1.67;1.55;;;9.40;99.90;;;;;;4961106;28;20026;-78
2023/10/26 05:34:30;;;;;;;1.52;1.42;;;9.20;99.90;;;;;;4961488;28;20037;-77
2023/10/26 05:36:56;;;;;;;2.85;1.60;;;9.10;99.90;;;;;;4978408;28;20038;-77
2023/10/26 05:39:21;;;;;;;2.63;2.42;;;9.10;99.90;;;;;;4960003;28;20046;-78
2023/10/26 05:41:47;;;;;;;1.73;1.63;;;8.90;99.90;;;;;;4982906;28;20117;-77
2023/10/26 05:44:13;;;;;;;2.03;1.83;;;9.00;99.90;;;;;;4989114;28;20094;-78
2023/10/26 05:46:38;;;;;;;1.52;1.42;;;9.20;99.90;;;;;;4975737;28;20023;-81
2023/10/26 05:49:05;;;;;;;1.80;1.67;;;9.10;99.90;;;;;;4972490;28;20038;-79
2023/10/26 05:51:31;;;;;;;1.80;1.70;;;9.20;99.90;;;;;;4974442;28;20037;-80
2023/10/26 05:53:57;;;;;;;1.50;1.40;;;9.20;99.90;;;;;;4970608;28;20094;-82
2023/10/26 05:56:22;;;;;;;1.35;1.25;;;9.30;99.90;;;;;;4985760;28;20026;-79
2023/10/26 05:58:50;;;;;;;1.42;1.33;;;9.30;99.90;;;;;;4985203;28;20038;-77
2023/10/26 06:01:16;;;;;;;2.08;1.85;;;9.30;99.90;;;;;;4965463;28;20027;-78
2023/10/26 06:03:42;;;;;;;1.38;1.27;;;9.40;99.90;;;;;;4964303;28;20026;-78
2023/10/26 06:06:08;;;;;;;5.05;1.30;;;9.50;99.90;;;;;;4964129;28;20023;-80
2023/10/26 06:08:33;;;;;;;5.38;1.55;;;9.50;99.90;;;;;;4963367;28;20023;-78
2023/10/26 06:10:59;;;;;;;1.42;1.33;;;9.50;99.90;;;;;;4980669;28;20026;-78
2023/10/26 06:13:25;;;;;;;1.40;1.30;;;9.50;99.90;;;;;;4963112;28;20026;-77
2023/10/26 06:15:51;;;;;;;1.40;1.30;;;9.70;99.90;;;;;;4962854;28;20034;-78
2023/10/26 06:18:16;;;;;;;2.75;1.80;;;9.70;99.90;;;;;;4963153;28;20019;-78
2023/10/26 06:20:42;;;;;;;1.00;1.00;;;9.70;99.90;;;;;;4962169;28;20023;-77
2023/10/26 06:23:08;;;;;;;1.20;1.10;;;9.70;99.90;;;;;;4977873;28;20394;-79
2023/10/26 06:25:38;;;;;;;1.23;1.13;;;9.70;99.90;;;;;;4978906;28;20479;-79
2023/10/26 06:28:04;;;;;;;0.88;0.88;;;9.70;99.90;;;;;;4961166;28;20070;-78
2023/10/26 06:30:31;;;;;;;2.55;1.10;;;9.90;99.90;;;;;;4958667;28;20031;-78
2023/10/26 06:32:58;;;;;;;2.20;1.77;;;9.90;99.90;;;;;;4961030;28;20487;-77
2023/10/26 06:35:24;;;;;;;2.28;2.03;;;10.00;99.90;;;;;;4960622;28;20422;-79
2023/10/26 06:37:50;;;;;;;2.65;1.90;;;10.10;99.90;;;;;;4962253;28;20031;-78
2023/10/26 06:40:16;;;;;;;3.15;1.55;;;10.00;99.90;;;;;;4978967;28;20031;-79
2023/10/26 06:42:42;;;;;;;3.22;2.47;;;10.10;99.90;;;;;;4978795;28;20027;-79
2023/10/26 06:45:08;;;;;;;2.25;2.05;;;10.00;99.90;;;;;;4961311;28;20027;-78
2023/10/26 06:47:34;;;;;;;1.70;1.60;;;10.10;99.90;;;;;;4961618;28;20105;-77
2023/10/26 06:49:59;;;;;;;4.38;2.72;;;10.20;99.90;;;;;;4960671;28;20027;-77
2023/10/26 06:52:25;;;;;;;9.70;2.45;;;10.10;99.90;;;;;;4960360;28;20523;-76
2023/10/26 06:54:51;;;;;;;1.92;1.50;;;10.20;99.90;;;;;;4977752;28;20027;-77
2023/10/26 06:57:16;;;;;;;5.72;1.92;;;11.80;99.90;;;;;;4977969;28;20042;-79
2023/10/26 06:59:42;;;;;;;6.35;2.33;;;12.30;99.90;;;;;;4960825;28;20528;-77
2023/10/26 07:02:10;;;;;;;2.20;2.00;;;12.30;99.90;;;;;;4978950;28;20033;-77
2023/10/26 07:04:35;;;;;;;1.80;1.70;;;11.70;99.90;;;;;;4961693;28;20169;-75
2023/10/26 07:07:01;;;;;;;1.67;1.58;;;11.30;99.90;;;;;;4979091;28;20495;-76
2023/10/26 07:09:27;;;;;;;1.80;1.70;;;11.10;99.90;;;;;;4977630;28;20018;-78
2023/10/26 07:11:53;;;;;;;1.77;1.67;;;10.90;99.90;;;;;;4962332;28;20181;-78
2023/10/26 07:14:18;;;;;;;4.22;2.60;;;10.80;99.90;;;;;;4982161;28;20031;-77
2023/10/26 07:16:44;;;;;;;5.30;3.22;;;10.80;99.90;;;;;;4963878;28;20400;-77
2023/10/26 07:19:10;;;;;;;2.38;2.28;;;10.90;99.90;;;;;;4965775;28;20066;-76
2023/10/26 07:21:36;;;;;;;2.22;2.03;;;10.80;99.90;;;;;;4964116;28;20027;-79
2023/10/26 07:24:02;;;;;;;2.30;1.90;;;10.90;99.90;;;;;;4963867;28;20054;-78
2023/10/26 07:26:28;;;;;;;2.30;2.10;;;11.10;99.90;;;;;;4980308;28;20039;-77
2023/10/26 07:28:56;;;;;;;2.13;1.88;;;11.20;99.90;;;;;;4979044;28;20042;-78
2023/10/26 07:31:22;;;;;;;3.03;1.75;;;11.20;99.90;;;;;;4980729;28;20394;-77
2023/10/26 07:33:48;;;;;;;3.05;2.08;;;11.20;99.90;;;;;;4982496;28;20029;-76
2023/10/26 07:36:14;;;;;;;4.00;2.13;;;11.30;99.90;;;;;;4983050;28;20070;-77
2023/10/26 07:38:41;;;;;;;3.25;2.97;;;11.50;99.90;;;;;;4982237;28;20542;-76
2023/10/26 07:41:08;;;;;;;2.25;1.98;;;11.60;99.90;;;;;;4981193;28;20058;-78
2023/10/26 07:43:36;;;;;;;2.25;2.05;;;11.60;99.90;;;;;;4981049;28;20027;-78
2023/10/26 07:46:03;;;;;;;4.60;1.55;;;11.60;99.90;;;;;;4981227;28;20022;-78
2023/10/26 07:48:28;;;;;;;2.20;1.90;;;11.60;99.90;;;;;;4982590;28;20495;-76
2023/10/26 07:50:55;;;;;;;4.85;2.10;;;11.70;99.90;;;;;;4981258;28;20041;-76
2023/10/26 07:53:21;;;;;;;1.63;1.50;;;11.70;99.90;;;;;;4964995;28;20035;-78
2023/10/26 07:55:47;;;;;;;3.58;3.28;;;11.70;99.90;;;;;;4964514;28;20034;-79
2023/10/26 07:58:13;;;;;;;3.78;3.47;;;11.80;99.90;;;;;;4981104;28;20027;-79
2023/10/26 08:00:38;;;;;;;3.45;3.15;;;13.20;99.90;;;;;;4965691;28;20118;-77
2023/10/26 08:03:04;;;;;;;4.63;2.33;;;13.70;99.90;;;;;;4982018;28;20082;-78
2023/10/26 08:05:30;;;;;;;4.60;2.40;;;13.30;99.90;;;;;;4981638;28;20030;-79
2023/10/26 08:07:55;;;;;;;2.67;2.20;;;13.10;99.90;;;;;;4981768;28;20462;-78
2023/10/26 08:10:21;;;;;;;2.70;1.67;;;13.10;99.90;;;;;;4980622;28;20035;-79
2023/10/26 08:12:51;;;;;;;1.83;1.73;;;13.00;99.90;;;;;;4980998;28;20031;-78
2023/10/26 08:15:17;;;;;;;3.50;1.40;;;12.90;99.90;;;;;;4982406;28;20034;-78
2023/10/26 08:17:43;;;;;;;2.17;1.75;;;13.00;99.90;;;;;;4984898;28;20026;-79
2023/10/26 08:20:09;;;;;;;1.85;1.75;;;13.10;99.90;;;;;;4982777;28;20037;-78
2023/10/26 08:22:35;;;;;;;3.88;2.00;;;13.30;99.90;;;;;;4965685;28;20505;-79
2023/10/26 08:25:01;;;;;;;1.50;1.40;;;13.40;99.90;;;;;;4980276;28;20069;-78
2023/10/26 08:27:26;;;;;;;1.48;1.38;;;13.50;99.90;;;;;;4981870;28;20089;-78
2023/10/26 08:29:52;;;;;;;1.33;1.25;;;13.60;99.90;;;;;;4964993;28;20034;-77
2023/10/26 08:32:18;;;;;;;1.42;1.20;;;13.70;99.90;;;;;;4981969;28;20434;-79
2023/10/26 08:34:47;;;;;;;4.43;1.48;;;13.70;99.90;;;;;;4964443;28;20074;-78
2023/10/26 08:37:13;;;;;;;1.10;1.08;;;13.80;99.90;;;;;;4980824;28;20033;-78
2023/10/26 08:39:39;;;;;;;1.58;1.08;;;13.70;99.90;;;;;;4979919;28;20537;-78
2023/10/26 08:42:05;;;;;;;1.60;1.40;;;13.80;99.90;;;;;;4979591;28;20031;-78
2023/10/26 08:44:32;;;;;;;3.17;0.90;;;13.80;99.90;;;;;;4979169;28;20085;-79
2023/10/26 08:47:01;;;;;;;1.23;1.13;;;13.90;99.90;;;;;;4980868;28;20074;-79
2023/10/26 08:49:28;;;;;;;1.33;1.00;;;14.00;99.90;;;;;;4979215;28;20027;-78
2023/10/26 08:51:54;;;;;;;1.55;1.10;;;13.90;99.90;;;;;;4979855;28;20049;-79
2023/10/26 08:54:20;;;;;;;1.60;1.30;;;14.00;99.90;;;;;;4980207;28;20030;-81
2023/10/26 08:56:46;;;;;;;1.05;0.93;;;14.10;99.90;;;;;;4979993;28;20030;-80
2023/10/26 08:59:11;;;;;;;1.00;1.00;;;14.10;99.90;;;;;;4963255;28;20126;-79
2023/10/26 09:01:37;;;;;;;1.95;0.85;;;14.20;99.90;;;;;;4979085;28;20464;-81
2023/10/26 09:04:11;;;;;;;1.17;1.05;;;14.30;99.90;;;;;;4979754;28;20097;-80
2023/10/26 09:06:49;;;;;;;0.68;0.68;;;14.40;99.90;;;;;;4980663;28;20031;-82
2023/10/26 09:09:15;;;;;;;2.28;0.95;;;14.50;99.90;;;;;;4978573;28;20080;-81
2023/10/26 09:11:42;;;;;;;1.38;1.05;;;14.50;99.90;;;;;;4980275;28;20042;-79
2023/10/26 09:14:17;;;;;;;0.93;0.93;;;14.60;99.90;;;;;;4978705;28;20026;-81
2023/10/26 09:16:45;;;;;;;1.38;0.75;;;14.50;99.90;;;;;;4980046;28;20537;-79
2023/10/26 09:19:12;;;;;;;3.00;0.75;;;14.70;99.90;;;;;;4983608;28;20090;-77
2023/10/26 09:21:48;;;;;;;1.23;0.75;;;14.80;99.90;;;;;;4981210;28;20086;-79
2023/10/26 09:24:24;;;;;;;0.82;0.60;;;14.80;99.90;;;;;;4980464;28;20018;-81
2023/10/26 09:26:54;;;;;;;0.75;0.75;;;14.80;99.90;;;;;;4980879;28;20026;-81
2023/10/26 09:29:21;;;;;;;2.38;0.80;;;14.80;99.90;;;;;;4979984;28;20019;-81
2023/10/26 09:31:54;;;;;;;0.60;0.60;;;14.90;99.90;;;;;;4978489;28;20038;-82
2023/10/26 09:34:25;;;;;;;1.95;0.90;;;15.10;99.90;;;;;;4978549;28;20081;-81
2023/10/26 09:37:02;;;;;;;1.15;1.05;;;15.00;99.90;;;;;;4977508;28;20045;-83
2023/10/26 09:39:33;;;;;;;1.23;0.77;;;15.40;99.90;;;;;;4978782;28;20066;-79
2023/10/26 09:42:01;;;;;;;1.35;1.00;;;15.40;99.90;;;;;;4977078;28;20026;-81
2023/10/26 09:44:28;;;;;;;1.05;0.93;;;15.30;99.90;;;;;;4977740;28;20073;-83
2023/10/26 09:46:54;;;;;;;1.30;0.75;;;15.30;99.90;;;;;;4977470;28;20023;-81
2023/10/26 09:49:24;;;;;;;2.58;0.93;;;15.40;99.90;;;;;;4961063;28;20131;-83
2023/10/26 09:51:50;;;;;;;1.33;0.82;;;15.40;99.90;;;;;;4977693;28;20045;-83
2023/10/26 09:54:22;;;;;;;0.82;0.82;;;15.40;99.90;;;;;;4976854;28;20395;-82
2023/10/26 09:56:55;;;;;;;0.80;0.80;;;15.60;99.90;;;;;;4977726;28;20057;-82
2023/10/26 09:59:21;;;;;;;0.47;0.47;;;15.50;99.90;;;;;;4977899;28;20042;-81
2023/10/26 10:01:47;;;;;;;0.63;0.63;;;15.50;99.90;;;;;;4960263;28;20030;-83
2023/10/26 10:04:13;;;;;;;0.65;0.60;;;15.60;99.90;;;;;;4976175;28;20114;-81
2023/10/26 10:06:50;;;;;;;0.32;0.32;;;15.60;99.90;;;;;;4978510;28;20022;-82
2023/10/26 10:09:26;;;;;;;2.55;0.88;;;15.80;99.90;;;;;;4976859;28;20073;-82
2023/10/26 10:12:13;;;;;;;1.05;0.80;;;15.80;99.90;;;;;;4977619;28;20518;-80
2023/10/26 10:14:48;;;;;;;4.05;1.08;;;16.10;99.90;;;;;;4976423;28;20031;-80
2023/10/26 10:17:18;;;;;;;3.93;1.20;;;16.20;99.90;;;;;;4978247;28;20037;-83
2023/10/26 10:20:07;;;;;;;0.93;0.40;;;16.20;99.90;;;;;;4975891;28;20359;-83
2023/10/26 10:22:38;;;;;;;1.27;0.52;;;16.20;99.90;;;;;;4974996;28;20450;-81
2023/10/26 10:25:05;;;;;;;1.80;0.60;;;16.20;99.90;;;;;;4960377;28;20033;-83
2023/10/26 10:27:31;;;;;;;2.60;0.80;;;16.20;99.90;;;;;;4960318;28;20027;-80
2023/10/26 10:29:58;;;;;;;1.67;0.50;;;16.10;99.90;;;;;;4976895;28;20018;-83
2023/10/26 10:32:42;;;;;;;1.05;0.40;;;16.20;99.90;;;;;;4977092;28;20034;-81
2023/10/26 10:35:09;;;;;;;0.60;0.60;;;16.30;99.90;;;;;;4976676;28;20479;-81
2023/10/26 10:37:36;;;;;;;0.82;0.40;;;16.40;99.90;;;;;;4959448;28;20066;-81
2023/10/26 10:40:13;;;;;;;1.05;0.55;;;16.20;99.90;;;;;;4959489;28;20038;-82
2023/10/26 10:42:50;;;;;;;4.53;0.80;;;16.30;99.90;;;;;;4960888;28;20023;-80
2023/10/26 10:45:17;;;;;;;1.48;0.60;;;16.40;99.90;;;;;;4961118;28;20030;-83
2023/10/26 10:47:44;;;;;;;1.50;0.82;;;16.40;99.90;;;;;;4977087;28;20390;-81
2023/10/26 10:50:26;;;;;;;0.95;0.60;;;16.40;99.90;;;;;;4960327;28;20031;-83
2023/10/26 10:52:56;;;;;;;5.97;0.68;;;16.40;99.90;;;;;;4978158;28;20081;-83
2023/10/26 10:55:26;;;;;;;1.40;0.80;;;16.50;99.90;;;;;;4959605;28;20042;-81
2023/10/26 10:57:53;;;;;;;0.68;0.45;;;16.50;99.90;;;;;;4959938;28;20031;-82
2023/10/26 11:00:19;;;;;;;1.95;0.55;;;16.70;99.90;;;;;;4959936;28;20031;-83
2023/10/26 11:02:49;;;;;;;1.02;0.35;;;16.80;99.90;;;;;;4959838;28;20023;-80
2023/10/26 11:05:16;;;;;;;2.75;0.70;;;16.70;99.90;;;;;;4976516;28;20038;-83
2023/10/26 11:07:42;;;;;;;1.45;0.50;;;16.80;99.90;;;;;;4976726;28;20117;-81
2023/10/26 11:10:08;;;;;;;8.30;1.05;;;16.80;99.90;;;;;;4958791;28;20038;-82
2023/10/26 11:12:34;;;;;;;2.47;0.30;;;16.70;99.90;;;;;;4959216;28;20026;-83
2023/10/26 11:15:00;;;;;;;4.93;0.90;;;16.80;99.90;;;;;;4958880;28;20023;-82
2023/10/26 11:17:28;;;;;;;2.40;0.65;;;16.80;99.90;;;;;;4976822;28;20019;-80
2023/10/26 11:19:55;;;;;;;0.63;0.63;;;16.90;99.90;;;;;;4959015;28;20419;-82
2023/10/26 11:22:22;;;;;;;0.73;0.45;;;17.00;99.90;;;;;;4958938;28;20479;-84
2023/10/26 11:24:47;;;;;;;3.53;0.65;;;17.00;99.90;;;;;;4958617;28;20054;-79
2023/10/26 11:27:18;;;;;;;2.72;0.70;;;17.00;99.90;;;;;;4959784;28;20023;-80
2023/10/26 11:29:58;;;;;;;1.75;0.60;;;17.10;99.90;;;;;;4959169;28;20019;-81
2023/10/26 11:32:24;;;;;;;1.17;0.40;;;17.00;99.90;;;;;;4959246;28;20023;-81
2023/10/26 11:35:09;;;;;;;3.65;0.75;;;17.10;99.90;;;;;;4958872;28;20033;-84
2023/10/26 11:37:40;;;;;;;0.60;0.60;;;17.20;99.90;;;;;;4976270;28;20097;-82
2023/10/26 11:40:08;;;;;;;1.25;0.73;;;17.30;99.90;;;;;;4976816;28;20054;-80
2023/10/26 11:43:02;;;;;;;0.47;0.47;;;17.40;99.90;;;;;;4960111;28;20561;-81
2023/10/26 11:45:28;;;;;;;1.75;0.50;;;17.50;99.90;;;;;;4973177;28;20392;-84
2023/10/26 11:47:56;;;;;;;1.80;0.77;;;17.50;99.90;;;;;;4959170;28;20026;-81
2023/10/26 11:50:30;;;;;;;1.17;0.70;;;17.50;99.90;;;;;;4976561;28;20035;-82
2023/10/26 11:53:00;;;;;;;0.50;0.50;;;17.70;99.90;;;;;;4959187;28;20038;-82
2023/10/26 11:55:27;;;;;;;1.98;0.82;;;17.70;99.90;;;;;;4976198;28;20027;-81
2023/10/26 11:57:56;;;;;;;1.80;0.73;;;17.80;99.90;;;;;;4960880;28;20026;-85
2023/10/26 12:00:22;;;;;;;0.80;0.70;;;17.90;99.90;;;;;;4981631;28;20530;-81
2023/10/26 12:02:48;;;;;;;2.85;0.80;;;18.00;99.90;;;;;;4961301;28;20050;-79
2023/10/26 12:05:16;;;;;;;1.90;0.50;;;17.90;99.90;;;;;;4961066;28;20045;-78
2023/10/26 12:07:46;;;;;;;0.90;0.55;;;17.50;99.90;;;;;;4959495;28;20081;-75
2023/10/26 12:10:13;;;;;;;1.02;0.50;;;17.40;99.90;;;;;;4976214;28;20057;-77
2023/10/26 12:12:39;;;;;;;0.30;0.30;;;17.30;99.90;;;;;;4958680;28;20027;-75
2023/10/26 12:15:05;;;;;;;0.82;0.47;;;17.20;99.90;;;;;;4958684;28;20023;-79
2023/10/26 12:17:31;;;;;;;2.10;0.73;;;17.10;99.90;;;;;;4959300;28;20026;-78
2023/10/26 12:19:57;;;;;;;1.23;0.60;;;17.20;99.90;;;;;;4958746;28;20027;-76
2023/10/26 12:22:22;;;;;;;0.77;0.60;;;17.10;99.90;;;;;;4958227;28;20038;-76
2023/10/26 12:24:48;;;;;;;0.77;0.77;;;17.10;99.90;;;;;;4975560;28;20483;-77
2023/10/26 12:27:16;;;;;;;0.73;0.70;;;17.20;99.90;;;;;;4958342;28;20038;-76
2023/10/26 12:29:46;;;;;;;0.90;0.90;;;17.10;99.90;;;;;;4976246;28;20031;-76
2023/10/26 12:32:11;;;;;;;1.65;0.70;;;17.10;99.90;;;;;;4974908;28;20061;-79
2023/10/26 12:34:37;;;;;;;0.73;0.52;;;17.10;99.90;;;;;;4976505;28;20050;-76
2023/10/26 12:37:04;;;;;;;0.73;0.65;;;17.20;99.90;;;;;;4976886;28;20034;-75
2023/10/26 12:39:30;;;;;;;3.30;0.55;;;17.30;99.90;;;;;;4976170;28;20042;-78
2023/10/26 12:41:56;;;;;;;1.10;0.40;;;17.30;99.90;;;;;;4975645;28;20403;-75
2023/10/26 12:44:24;;;;;;;0.52;0.40;;;17.30;99.90;;;;;;4974468;28;20030;-76
2023/10/26 12:46:50;;;;;;;0.38;0.38;;;17.30;99.90;;;;;;4976235;28;20050;-77
2023/10/26 12:49:16;;;;;;;1.95;0.63;;;17.30;99.90;;;;;;4978188;28;20027;-79